KOMA/OMA METAR and TAF weather

Enter ICAO airport designator
Station Type Date Time Source
KOMA METAR 2019/10/15 21:52 UTC NOAA

KOMA 152152Z 33028G38KT 10SM BKN055 11/00 A3006 RMK AO2 PK WND 33040/2120 SLP179 T01110000


Station Type Date Time Source
KOMA Decoded METAR 2019/10/15 21:52 UTC NOAA

OMAHA EPPLEY AIRFIELD, NE, United States (KOMA) 41-18N 095-54W 312M
Oct 15, 2019 - 05:52 PM EDT / 2019.10.15 2152 UTC
Wind: from the NNW (330 degrees) at 32 MPH (28 KT) gusting to 44 MPH (38 KT):0
Visibility: 10 mile(s):0
Sky conditions: mostly cloudy
Temperature: 52.0 F (11.1 C)
Dew Point: 32.0 F (0.0 C)
Relative Humidity: 46%
Pressure (altimeter): 30.06 in. Hg (1017 hPa)
ob: KOMA 152152Z 33028G38KT 10SM BKN055 11/00 A3006 RMK AO2 PK WND 33040/2120 SLP179 T01110000
cycle: 22

Station Type Date Time Source
KOMA TAF 2019/10/15 18:39 UTC NOAA

TAF KOMA 151737Z 1518/1618 33025G35KT P6SM FEW045
FM152300 33015G25KT P6SM SCT035
FM160100 33012KT P6SM BKN035
FM160900 32008KT P6SM BKN025
FM161400 31008KT P6SM FEW035

Example: see airport list